createdAt,value
2018-06-15T00:01:19.596Z,66.80
2018-06-15T00:03:52.588Z,66.80
2018-06-15T00:06:25.598Z,66.80
2018-06-15T00:08:58.603Z,66.80
2018-06-15T00:11:31.614Z,66.80
2018-06-15T00:14:04.619Z,67.00
2018-06-15T00:16:37.622Z,67.30
2018-06-15T00:19:10.643Z,67.20
2018-06-15T00:21:43.684Z,67.40
2018-06-15T00:24:16.710Z,67.40
2018-06-15T00:26:49.731Z,67.20
2018-06-15T00:29:22.799Z,67.30
2018-06-15T00:31:55.746Z,68.50
2018-06-15T00:34:28.782Z,68.80
2018-06-15T00:37:01.774Z,68.90
2018-06-15T00:39:34.810Z,69.20
2018-06-15T00:42:07.826Z,70.00
2018-06-15T00:44:40.838Z,69.70
2018-06-15T00:47:13.829Z,69.90
2018-06-15T00:49:46.818Z,70.30
2018-06-15T00:52:19.850Z,70.30
2018-06-15T00:54:52.829Z,70.40
2018-06-15T00:57:37.474Z,70.30
2018-06-15T01:00:10.460Z,70.20
2018-06-15T01:02:43.503Z,70.10
2018-06-15T01:05:16.485Z,70.30
2018-06-15T01:07:49.577Z,70.40
2018-06-15T01:10:22.560Z,70.30
2018-06-15T01:12:55.565Z,70.80
2018-06-15T01:15:28.560Z,71.00
2018-06-15T01:18:01.570Z,70.50
2018-06-15T01:20:34.635Z,70.40
2018-06-15T01:23:07.681Z,70.20
2018-06-15T01:25:40.714Z,70.90
2018-06-15T01:28:13.731Z,70.60
2018-06-15T01:30:46.747Z,70.20
2018-06-15T01:33:19.788Z,71.20
2018-06-15T01:35:52.798Z,70.80
2018-06-15T01:38:25.818Z,70.60
2018-06-15T01:40:58.852Z,70.60
2018-06-15T01:43:31.865Z,70.50
2018-06-15T01:46:04.874Z,70.30
2018-06-15T01:48:37.903Z,70.50
2018-06-15T01:51:10.917Z,70.70
2018-06-15T01:53:43.941Z,70.40
2018-06-15T01:56:16.969Z,70.50
2018-06-15T01:58:50.019Z,70.30
2018-06-15T02:01:23.150Z,71.30
2018-06-15T02:03:56.107Z,70.90
2018-06-15T02:06:29.162Z,72.80
2018-06-15T02:09:02.174Z,72.40
2018-06-15T02:11:35.178Z,71.80
2018-06-15T02:14:08.243Z,73.70
2018-06-15T02:16:41.269Z,73.00
2018-06-15T02:19:14.278Z,73.40
2018-06-15T02:21:47.285Z,72.50
2018-06-15T02:24:20.356Z,72.60
2018-06-15T02:26:53.354Z,72.20
2018-06-15T02:29:26.358Z,72.00
2018-06-15T02:32:12.717Z,72.70
2018-06-15T02:34:45.749Z,72.80
2018-06-15T02:37:18.768Z,72.60
2018-06-15T02:39:51.799Z,73.20
2018-06-15T02:42:24.814Z,72.90
2018-06-15T02:44:57.830Z,73.50
2018-06-15T02:47:30.818Z,73.50
2018-06-15T02:50:03.930Z,73.60
2018-06-15T02:52:36.970Z,73.80
2018-06-15T02:55:10.024Z,73.50
2018-06-15T02:57:43.062Z,73.50
2018-06-15T03:00:16.076Z,73.20
2018-06-15T03:02:49.102Z,73.40
2018-06-15T03:05:22.134Z,73.80
2018-06-15T03:07:55.141Z,73.70
2018-06-15T03:10:28.165Z,73.80
2018-06-15T03:13:01.180Z,73.80
2018-06-15T03:15:34.190Z,74.00
2018-06-15T03:18:07.192Z,74.50
2018-06-15T03:20:40.234Z,75.30
2018-06-15T03:23:13.247Z,74.40
2018-06-15T03:25:46.303Z,74.30
2018-06-15T03:28:19.319Z,76.10
2018-06-15T03:30:52.340Z,74.60
2018-06-15T03:33:25.367Z,75.20
2018-06-15T03:35:58.406Z,74.60
2018-06-15T03:38:31.413Z,74.60
2018-06-15T03:41:04.763Z,75.00
2018-06-15T03:43:37.777Z,74.90
2018-06-15T03:46:10.798Z,75.60
2018-06-15T03:48:43.809Z,75.20
2018-06-15T03:51:16.850Z,75.40
2018-06-15T03:53:49.873Z,75.80
2018-06-15T03:56:22.941Z,75.40
2018-06-15T03:58:57.070Z,75.30
2018-06-15T04:01:30.089Z,75.80
2018-06-15T04:04:03.095Z,76.10
2018-06-15T04:06:36.141Z,76.60
2018-06-15T04:09:09.834Z,75.80
2018-06-15T04:11:42.889Z,75.80
2018-06-15T04:14:15.909Z,76.10
2018-06-15T04:16:48.983Z,76.60
2018-06-15T04:19:21.998Z,77.40
2018-06-15T04:21:55.058Z,76.90
2018-06-15T04:24:28.090Z,78.90
2018-06-15T04:27:01.109Z,78.20
2018-06-15T04:29:34.152Z,78.80
2018-06-15T04:32:07.310Z,79.90
2018-06-15T04:34:40.319Z,78.80
2018-06-15T04:37:13.352Z,80.00
2018-06-15T04:42:19.264Z,79.70
2018-06-15T04:44:52.358Z,79.80
2018-06-15T04:47:25.782Z,79.40
2018-06-15T04:49:58.929Z,79.30
2018-06-15T04:52:47.827Z,82.50
2018-06-15T05:01:53.830Z,80.70
2018-06-15T05:04:26.986Z,80.40
2018-06-15T05:07:00.115Z,80.20
2018-06-15T05:09:33.715Z,79.90
2018-06-15T05:12:06.800Z,80.40
2018-06-15T05:17:12.940Z,80.80
2018-06-15T05:19:45.965Z,81.10
2018-06-15T05:22:19.099Z,82.40
2018-06-15T05:24:52.266Z,81.00
2018-06-15T05:27:25.389Z,81.00
2018-06-15T05:29:58.454Z,81.10
2018-06-15T05:32:31.523Z,83.10
2018-06-15T05:35:04.657Z,82.60
2018-06-15T05:37:37.738Z,82.90
2018-06-15T05:40:11.142Z,82.10
2018-06-15T05:42:44.246Z,82.10
2018-06-15T05:47:50.167Z,82.20
2018-06-15T05:50:23.354Z,83.60
2018-06-15T05:52:56.386Z,82.90
2018-06-15T05:55:29.438Z,83.30
2018-06-15T05:58:03.172Z,83.10
2018-06-15T06:00:36.350Z,82.90
2018-06-15T06:03:09.423Z,82.50
2018-06-15T06:05:42.762Z,83.60
2018-06-15T06:08:17.309Z,83.00
2018-06-15T06:10:50.540Z,83.10
2018-06-15T06:13:23.790Z,84.60
2018-06-15T06:15:56.846Z,84.70
2018-06-15T06:21:03.944Z,83.30
2018-06-15T06:23:36.966Z,84.10
2018-06-15T06:26:10.365Z,83.50
2018-06-15T06:28:43.421Z,83.50
2018-06-15T06:31:16.438Z,83.30
2018-06-15T06:33:49.484Z,83.40
2018-06-15T06:36:22.551Z,83.20
2018-06-15T06:38:55.565Z,83.80
2018-06-15T06:41:28.614Z,84.20
2018-06-15T06:44:01.638Z,84.00
2018-06-15T06:46:34.645Z,84.60
2018-06-15T06:49:07.694Z,83.70
2018-06-15T06:51:40.705Z,83.60
2018-06-15T06:54:13.749Z,84.10
2018-06-15T06:56:46.774Z,83.70
2018-06-15T06:59:19.918Z,83.80
2018-06-15T07:01:52.969Z,83.20
2018-06-15T07:04:26.023Z,83.10
2018-06-15T07:12:44.942Z,82.90
2018-06-15T07:15:17.968Z,83.60
2018-06-15T07:17:50.998Z,82.80
2018-06-15T07:20:26.054Z,83.80
2018-06-15T07:22:59.082Z,83.50
2018-06-15T07:25:32.119Z,84.00
2018-06-15T07:28:05.181Z,84.40
2018-06-15T07:30:38.211Z,84.30
2018-06-15T07:33:11.835Z,83.50
2018-06-15T07:35:45.064Z,83.70
2018-06-15T07:38:19.754Z,84.40
2018-06-15T07:40:52.770Z,84.30
2018-06-15T07:43:25.811Z,82.90
2018-06-15T07:45:58.907Z,83.10
2018-06-15T07:48:31.981Z,83.00
2018-06-15T07:51:04.994Z,83.00
2018-06-15T07:53:38.057Z,83.30
2018-06-15T07:56:11.114Z,82.10
2018-06-15T07:58:44.132Z,82.70
2018-06-15T08:01:17.158Z,83.00
2018-06-15T08:03:55.694Z,82.20
2018-06-15T08:06:28.727Z,81.80
2018-06-15T08:09:07.870Z,82.20
2018-06-15T08:11:42.098Z,83.20
2018-06-15T08:14:15.150Z,83.80
2018-06-15T08:16:48.173Z,84.70
2018-06-15T08:19:21.217Z,85.30
2018-06-15T08:21:54.266Z,86.00
2018-06-15T08:24:27.320Z,86.40
2018-06-15T08:27:00.362Z,87.10
2018-06-15T08:29:33.401Z,86.40
2018-06-15T08:32:06.774Z,86.70
2018-06-15T08:37:12.937Z,86.90
2018-06-15T08:39:45.973Z,86.50
2018-06-15T08:42:19.021Z,87.10
2018-06-15T08:44:52.035Z,86.90
2018-06-15T08:47:25.227Z,86.40
2018-06-15T08:49:58.390Z,84.60
2018-06-15T08:52:31.566Z,84.60
2018-06-15T08:55:04.741Z,83.20
2018-06-15T08:57:37.782Z,82.80
2018-06-15T09:00:10.854Z,82.50
2018-06-15T09:02:43.910Z,81.60
2018-06-15T09:05:17.175Z,82.00
2018-06-15T09:07:50.216Z,80.60
2018-06-15T09:10:23.250Z,80.50
2018-06-15T09:12:56.274Z,81.30
2018-06-15T09:15:29.337Z,80.80
2018-06-15T09:18:02.374Z,79.20
2018-06-15T09:20:35.945Z,79.60
2018-06-15T09:23:08.987Z,80.20
2018-06-15T09:25:42.054Z,79.70
2018-06-15T09:28:15.065Z,78.20
2018-06-15T09:30:48.131Z,78.10
2018-06-15T09:33:22.135Z,78.10
2018-06-15T09:35:55.197Z,78.10
2018-06-15T09:38:28.249Z,77.80
2018-06-15T09:41:01.305Z,76.50
2018-06-15T09:43:34.329Z,76.00
2018-06-15T09:46:07.431Z,76.90
2018-06-15T09:48:42.453Z,76.90
2018-06-15T09:51:16.019Z,77.80
2018-06-15T09:53:49.077Z,78.40
2018-06-15T09:56:22.291Z,77.30
2018-06-15T09:58:56.648Z,76.80
2018-06-15T10:01:29.712Z,76.30
2018-06-15T10:04:02.788Z,76.50
2018-06-15T10:06:35.846Z,77.10
2018-06-15T10:09:08.838Z,77.00
2018-06-15T10:11:41.877Z,75.70
2018-06-15T10:14:14.937Z,74.50
2018-06-15T10:16:47.958Z,72.20
2018-06-15T10:19:20.981Z,74.30
2018-06-15T10:21:54.051Z,71.60
2018-06-15T10:24:27.072Z,73.50
2018-06-15T10:27:00.081Z,72.70
2018-06-15T10:29:33.093Z,73.50
2018-06-15T10:32:06.131Z,72.80
2018-06-15T10:34:39.202Z,71.60
2018-06-15T10:37:12.263Z,70.30
2018-06-15T10:39:45.322Z,68.40
2018-06-15T10:42:18.342Z,67.10
2018-06-15T10:44:51.374Z,69.10
2018-06-15T10:47:24.381Z,69.10
2018-06-15T10:49:57.390Z,69.70
2018-06-15T10:52:30.477Z,70.20
2018-06-15T10:55:03.565Z,69.30
2018-06-15T10:57:36.601Z,69.10
2018-06-15T11:00:09.615Z,68.80
2018-06-15T11:02:42.703Z,68.30
2018-06-15T11:05:15.725Z,68.10
2018-06-15T11:07:49.001Z,67.50
2018-06-15T11:10:22.035Z,67.30
2018-06-15T11:12:55.085Z,64.60
2018-06-15T11:15:28.112Z,64.20
2018-06-15T11:18:01.154Z,63.80
2018-06-15T11:20:34.206Z,62.10
2018-06-15T11:23:07.232Z,63.00
2018-06-15T11:25:40.258Z,61.10
2018-06-15T11:28:13.327Z,61.70
2018-06-15T11:30:46.318Z,58.90
2018-06-15T11:33:19.754Z,59.70
2018-06-15T11:35:52.805Z,60.00
2018-06-15T11:38:25.827Z,58.30
2018-06-15T11:40:58.868Z,59.50
2018-06-15T11:43:31.934Z,60.00
2018-06-15T11:46:04.956Z,58.20
2018-06-15T11:48:38.005Z,58.00
2018-06-15T11:51:11.002Z,57.20
2018-06-15T11:53:44.040Z,57.70
2018-06-15T11:56:17.090Z,56.20
2018-06-15T11:58:50.155Z,57.10
2018-06-15T12:01:23.198Z,56.80
2018-06-15T12:03:56.249Z,58.30
2018-06-15T12:06:29.298Z,57.40
2018-06-15T12:09:02.359Z,56.70
2018-06-15T12:11:35.531Z,55.90
2018-06-15T12:14:08.570Z,55.90
2018-06-15T12:16:41.595Z,55.50
2018-06-15T12:19:14.618Z,55.70
2018-06-15T12:21:47.622Z,54.70
2018-06-15T12:24:20.699Z,55.90
2018-06-15T12:26:53.719Z,57.00
2018-06-15T12:29:26.774Z,55.90
2018-06-15T12:31:59.796Z,55.30
2018-06-15T12:34:32.857Z,56.00
2018-06-15T12:37:05.935Z,56.80
2018-06-15T12:39:38.979Z,55.90
2018-06-15T12:42:12.033Z,56.60
2018-06-15T12:44:45.086Z,57.30
2018-06-15T12:47:18.134Z,57.90
2018-06-15T12:49:51.146Z,57.90
2018-06-15T12:52:24.157Z,58.60
2018-06-15T12:54:57.254Z,58.60
2018-06-15T12:57:30.318Z,58.80
2018-06-15T13:00:03.448Z,59.40
2018-06-15T13:02:36.479Z,59.40
2018-06-15T13:05:09.556Z,59.60
2018-06-15T13:07:42.617Z,59.60
2018-06-15T13:10:15.637Z,60.10
2018-06-15T13:12:48.710Z,60.40
2018-06-15T13:15:21.756Z,60.20
2018-06-15T13:17:54.793Z,61.60
2018-06-15T13:20:27.832Z,61.00
2018-06-15T13:23:00.887Z,60.10
2018-06-15T13:25:33.962Z,59.90
2018-06-15T13:28:06.966Z,60.80
2018-06-15T13:30:40.014Z,62.10
2018-06-15T13:33:13.018Z,62.90
2018-06-15T13:35:46.050Z,62.40
2018-06-15T13:38:19.078Z,62.70
2018-06-15T13:40:52.124Z,60.30
2018-06-15T13:43:25.156Z,59.60
2018-06-15T13:45:58.225Z,58.40
2018-06-15T13:48:31.246Z,58.40
2018-06-15T13:51:04.269Z,57.60
2018-06-15T13:53:37.287Z,58.50
2018-06-15T13:56:10.311Z,58.60
2018-06-15T13:58:43.348Z,57.30
2018-06-15T14:01:16.359Z,56.60
2018-06-15T14:03:49.388Z,55.90
2018-06-15T14:06:22.443Z,54.10
2018-06-15T14:08:57.559Z,56.60
2018-06-15T14:11:30.608Z,55.10
2018-06-15T14:14:03.843Z,54.60
2018-06-15T14:16:36.898Z,53.20
2018-06-15T14:19:10.032Z,52.50
2018-06-15T14:21:44.149Z,52.00
2018-06-15T14:24:17.153Z,52.20
2018-06-15T14:26:50.257Z,51.20
2018-06-15T14:29:23.321Z,52.20
2018-06-15T14:31:56.418Z,52.40
2018-06-15T14:34:29.459Z,50.60
2018-06-15T14:37:02.542Z,51.50
2018-06-15T14:39:35.560Z,51.40
2018-06-15T14:42:08.729Z,51.20
2018-06-15T14:44:41.762Z,50.50
2018-06-15T14:47:14.806Z,48.10
2018-06-15T14:49:47.842Z,49.30
2018-06-15T14:57:30.508Z,49.60
2018-06-15T15:00:03.580Z,49.00
2018-06-15T15:02:36.618Z,49.70
2018-06-15T15:05:09.634Z,49.50
2018-06-15T15:07:42.746Z,48.80
2018-06-15T15:10:15.830Z,46.90
2018-06-15T15:15:21.815Z,46.20
2018-06-15T15:17:54.858Z,45.20
2018-06-15T15:20:28.014Z,46.30
2018-06-15T15:23:01.058Z,40.20
2018-06-15T15:25:34.123Z,43.80
2018-06-15T15:28:07.313Z,45.70
2018-06-15T15:30:40.354Z,45.60
2018-06-15T15:33:13.409Z,45.80
2018-06-15T15:35:46.453Z,45.60
2018-06-15T15:38:19.485Z,46.60
2018-06-15T15:40:52.522Z,46.50
2018-06-15T15:43:26.190Z,46.30
2018-06-15T15:45:59.238Z,46.20
2018-06-15T15:48:32.290Z,47.30
2018-06-15T15:51:05.475Z,46.10
2018-06-15T15:53:38.541Z,47.20
2018-06-15T15:56:11.601Z,46.90
2018-06-15T15:58:44.705Z,47.40
2018-06-15T16:01:17.792Z,48.50
2018-06-15T16:03:50.833Z,47.50
2018-06-15T16:06:23.861Z,46.70
2018-06-15T16:08:57.058Z,46.00
2018-06-15T16:11:30.058Z,46.30
2018-06-15T16:14:03.104Z,46.50
2018-06-15T16:16:36.128Z,45.90
2018-06-15T16:19:09.194Z,46.00
2018-06-15T16:21:42.249Z,46.00
2018-06-15T16:24:15.341Z,45.90
2018-06-15T16:26:48.371Z,46.80
2018-06-15T16:29:21.423Z,46.50
2018-06-15T16:31:54.531Z,46.70
2018-06-15T16:34:27.607Z,46.00
2018-06-15T16:37:00.642Z,46.10
2018-06-15T16:42:06.524Z,45.60
2018-06-15T16:44:39.604Z,46.00
2018-06-15T16:47:12.666Z,46.00
2018-06-15T16:49:45.694Z,47.20
2018-06-15T16:52:18.709Z,46.10
2018-06-15T16:54:51.790Z,45.20
2018-06-15T16:57:24.978Z,46.60
2018-06-15T16:59:58.244Z,46.10
2018-06-15T17:02:31.358Z,46.10
2018-06-15T17:05:04.466Z,45.90
2018-06-15T17:07:37.490Z,45.40
2018-06-15T17:10:10.668Z,45.80
2018-06-15T17:12:43.700Z,45.00
2018-06-15T17:15:16.783Z,45.10
2018-06-15T17:17:49.858Z,46.10
2018-06-15T17:20:23.036Z,46.00
2018-06-15T17:22:56.821Z,46.10
2018-06-15T17:25:29.950Z,46.00
2018-06-15T17:30:36.053Z,47.10
2018-06-15T17:33:09.102Z,46.70
2018-06-15T17:35:42.212Z,47.10
2018-06-15T17:38:15.263Z,47.10
2018-06-15T17:40:48.324Z,47.30
2018-06-15T17:43:21.517Z,47.60
2018-06-15T17:45:54.570Z,47.80
2018-06-15T17:48:27.726Z,48.10
2018-06-15T17:51:00.879Z,48.20
2018-06-15T17:53:33.890Z,48.40
2018-06-15T17:56:06.997Z,48.60
2018-06-15T17:58:40.046Z,48.90
2018-06-15T18:01:13.135Z,49.00
2018-06-15T18:03:46.206Z,49.20
2018-06-15T18:06:19.266Z,49.20
2018-06-15T18:08:52.413Z,48.90
2018-06-15T18:11:25.418Z,49.20
2018-06-15T18:16:31.329Z,49.40
2018-06-15T18:19:04.366Z,49.60
2018-06-15T18:21:37.475Z,50.10
2018-06-15T18:24:11.589Z,50.50
2018-06-15T18:26:44.647Z,50.70
2018-06-15T18:29:17.748Z,50.80
2018-06-15T18:31:50.839Z,51.00
2018-06-15T18:34:23.883Z,51.10
2018-06-15T18:36:56.998Z,51.10
2018-06-15T18:39:30.050Z,51.10
2018-06-15T18:42:03.130Z,51.30
2018-06-15T18:44:36.273Z,51.60
2018-06-15T18:47:09.362Z,51.70
2018-06-15T18:49:42.382Z,52.00
2018-06-15T18:52:15.552Z,52.20
2018-06-15T18:54:48.655Z,52.20
2018-06-15T18:57:21.777Z,52.40
2018-06-15T18:59:54.842Z,52.30
2018-06-15T19:02:27.890Z,53.30
2018-06-15T19:05:00.977Z,52.60
2018-06-15T19:07:34.112Z,52.80
2018-06-15T19:10:07.195Z,52.90
2018-06-15T19:12:40.309Z,53.20
2018-06-15T19:15:13.368Z,53.20
2018-06-15T19:17:46.481Z,53.30
2018-06-15T19:20:19.532Z,53.30
2018-06-15T19:22:52.615Z,53.40
2018-06-15T19:25:25.718Z,53.30
2018-06-15T19:27:58.748Z,53.40
2018-06-15T19:30:31.804Z,53.60
2018-06-15T19:33:04.853Z,53.90
2018-06-15T19:35:37.907Z,54.00
2018-06-15T19:38:10.986Z,54.10
2018-06-15T19:40:44.019Z,54.50
2018-06-15T19:43:17.134Z,54.90
2018-06-15T19:45:50.171Z,55.60
2018-06-15T19:48:23.231Z,55.80
2018-06-15T19:53:29.330Z,56.00
2018-06-15T19:56:02.434Z,56.00
2018-06-15T19:58:35.534Z,56.00
2018-06-15T20:01:08.558Z,56.00
2018-06-15T20:03:41.639Z,56.10
2018-06-15T20:06:14.826Z,55.90
2018-06-15T20:08:47.954Z,56.50
2018-06-15T20:11:21.039Z,56.80
2018-06-15T20:13:54.253Z,57.20
2018-06-15T20:16:27.355Z,57.30
2018-06-15T20:19:00.635Z,57.60
2018-06-15T20:21:33.750Z,57.80
2018-06-15T20:24:06.820Z,58.00
2018-06-15T20:26:39.902Z,58.10
2018-06-15T20:29:13.033Z,58.60
2018-06-15T20:31:47.179Z,58.80
2018-06-15T20:34:20.219Z,59.50
2018-06-15T20:36:53.264Z,58.90
2018-06-15T20:39:26.329Z,58.90
2018-06-15T20:41:59.399Z,59.30
2018-06-15T20:44:32.501Z,59.30
2018-06-15T20:47:05.525Z,59.00
2018-06-15T20:49:38.582Z,58.90
2018-06-15T20:52:11.593Z,59.10
2018-06-15T20:54:44.630Z,59.30
2018-06-15T20:57:17.657Z,59.70
2018-06-15T20:59:50.698Z,59.80
2018-06-15T21:02:23.729Z,59.40
2018-06-15T21:04:56.753Z,59.40
2018-06-15T21:07:29.770Z,59.70
2018-06-15T21:10:02.839Z,59.60
2018-06-15T21:12:35.869Z,59.50
2018-06-15T21:15:08.897Z,61.30
2018-06-15T21:17:41.926Z,61.70
2018-06-15T21:20:14.945Z,61.80
2018-06-15T21:22:47.978Z,61.70
2018-06-15T21:25:21.038Z,62.20
2018-06-15T21:27:54.177Z,63.60
2018-06-15T21:30:27.290Z,64.20
2018-06-15T21:33:00.313Z,64.80
2018-06-15T21:35:33.331Z,64.10
2018-06-15T21:38:06.444Z,64.50
2018-06-15T21:40:39.577Z,65.80
2018-06-15T21:43:12.586Z,66.20
2018-06-15T21:45:45.602Z,67.30
2018-06-15T21:48:18.633Z,68.60
2018-06-15T21:50:52.214Z,69.30
2018-06-15T21:53:25.258Z,70.40
2018-06-15T21:55:58.275Z,70.60
2018-06-15T21:58:31.276Z,71.20
2018-06-15T22:01:04.371Z,71.30
2018-06-15T22:03:37.379Z,72.40
2018-06-15T22:06:10.432Z,71.70
2018-06-15T22:08:43.491Z,72.00
2018-06-15T22:11:16.525Z,72.50
2018-06-15T22:13:49.543Z,71.30
2018-06-15T22:16:22.591Z,70.90
2018-06-15T22:18:55.606Z,70.90
2018-06-15T22:21:28.658Z,71.70
2018-06-15T22:24:01.684Z,71.50
2018-06-15T22:26:34.742Z,71.20
2018-06-15T22:29:07.766Z,70.70
2018-06-15T22:31:40.942Z,71.00
2018-06-15T22:34:13.960Z,70.50
2018-06-15T22:36:46.977Z,70.50
2018-06-15T22:39:20.024Z,70.40
2018-06-15T22:41:53.138Z,70.40
2018-06-15T22:44:26.162Z,71.20
2018-06-15T22:46:59.179Z,70.50
2018-06-15T22:49:32.239Z,70.60
2018-06-15T22:52:05.298Z,71.60
2018-06-15T22:54:38.330Z,71.00
2018-06-15T22:57:11.378Z,70.90
2018-06-15T22:59:44.397Z,72.00
2018-06-15T23:02:17.477Z,72.20
2018-06-15T23:04:50.478Z,72.70
2018-06-15T23:09:56.390Z,73.50
2018-06-15T23:12:29.451Z,73.40
2018-06-15T23:15:02.479Z,73.80
2018-06-15T23:17:35.489Z,73.40
2018-06-15T23:20:08.706Z,74.20
2018-06-15T23:22:41.753Z,74.00
2018-06-15T23:25:14.810Z,74.10
2018-06-15T23:27:47.867Z,73.70
2018-06-15T23:30:20.896Z,74.10
2018-06-15T23:32:53.942Z,74.20
2018-06-15T23:35:26.957Z,74.10
2018-06-15T23:38:00.012Z,73.80
2018-06-15T23:40:33.063Z,73.60
2018-06-15T23:43:06.118Z,73.70
2018-06-15T23:45:39.162Z,73.90
2018-06-15T23:48:12.247Z,73.90
2018-06-15T23:50:45.234Z,73.90
2018-06-15T23:53:18.291Z,73.30
2018-06-15T23:55:51.301Z,73.60
2018-06-15T23:58:24.302Z,73.60
